createdAt,value
2022-10-03T00:04:18.204Z,100209.86
2022-10-03T00:09:52.247Z,100206.41
2022-10-03T00:15:19.337Z,100205.09
2022-10-03T00:20:50.761Z,100201.55
2022-10-03T00:26:29.094Z,100199.96
2022-10-03T00:31:51.619Z,100199.73
2022-10-03T00:37:16.455Z,100197.94
2022-10-03T00:42:35.879Z,100200.47
2022-10-03T00:47:57.897Z,100202.23
2022-10-03T00:53:33.752Z,100208.18
2022-10-03T00:58:47.504Z,100206.42
2022-10-03T01:04:25.121Z,100204.65
2022-10-03T01:09:48.939Z,100203.92
2022-10-03T01:15:30.645Z,100206.40
2022-10-03T01:20:40.005Z,100211.52
2022-10-03T01:25:53.220Z,100211.21
2022-10-03T01:31:01.450Z,100207.92
2022-10-03T01:36:23.065Z,100215.67
2022-10-03T01:41:50.686Z,100218.94
2022-10-03T01:47:15.871Z,100216.52
2022-10-03T01:52:53.228Z,100225.15
2022-10-03T01:58:08.948Z,100225.17
2022-10-03T02:03:21.036Z,100221.70
2022-10-03T02:08:29.027Z,100220.55
2022-10-03T02:13:49.279Z,100221.45
2022-10-03T02:19:11.247Z,100223.82
2022-10-03T02:24:20.388Z,100225.67
2022-10-03T02:29:47.773Z,100231.23
2022-10-03T02:35:08.047Z,100235.89
2022-10-03T02:40:30.921Z,100243.49
2022-10-03T02:45:47.119Z,100241.15
2022-10-03T02:51:12.375Z,100248.64
2022-10-03T02:56:37.404Z,100254.47
2022-10-03T03:02:17.551Z,100254.73
2022-10-03T03:07:44.171Z,100256.92
2022-10-03T03:13:22.146Z,100259.55
2022-10-03T03:18:31.135Z,100262.30
2022-10-03T03:23:53.308Z,100265.45
2022-10-03T03:29:16.574Z,100268.28
2022-10-03T03:34:53.574Z,100268.54
2022-10-03T03:40:12.817Z,100266.05
2022-10-03T03:45:31.251Z,100268.08
2022-10-03T03:50:53.485Z,100269.07
2022-10-03T03:56:03.925Z,100277.89
2022-10-03T04:01:34.921Z,100277.73
2022-10-03T04:06:51.451Z,100286.66
2022-10-03T04:12:10.161Z,100286.05
2022-10-03T04:18:05.809Z,100283.41
2022-10-03T04:23:13.273Z,100284.16
2022-10-03T04:28:39.537Z,100282.34
2022-10-03T04:34:01.305Z,100273.24
2022-10-03T04:39:28.119Z,100272.08
2022-10-03T04:44:56.034Z,100275.50
2022-10-03T04:50:12.748Z,100272.83
2022-10-03T04:55:40.963Z,100276.71
2022-10-03T05:01:12.507Z,100274.14
2022-10-03T05:06:56.715Z,100276.63
2022-10-03T05:12:08.044Z,100276.90
2022-10-03T05:17:34.455Z,100282.56
2022-10-03T05:22:56.570Z,100287.25
2022-10-03T05:28:41.581Z,100294.95
2022-10-03T05:34:10.597Z,100292.38
2022-10-03T05:39:19.863Z,100291.94
2022-10-03T05:44:38.519Z,100289.90
2022-10-03T05:49:44.503Z,100291.59
2022-10-03T05:55:04.413Z,100280.13
2022-10-03T06:00:23.809Z,100285.51
2022-10-03T06:05:42.048Z,100292.67
2022-10-03T06:11:11.926Z,100297.46
2022-10-03T06:16:33.328Z,100307.33
2022-10-03T06:22:14.637Z,100315.04
2022-10-03T06:27:27.127Z,100321.90
2022-10-03T06:33:18.393Z,100320.27
2022-10-03T06:38:46.547Z,100322.39
2022-10-03T06:44:11.879Z,100330.54
2022-10-03T06:49:47.058Z,100341.48
2022-10-03T06:55:16.364Z,100343.22
2022-10-03T07:00:21.994Z,100343.41
2022-10-03T07:05:44.306Z,100346.17
2022-10-03T07:11:02.239Z,100353.82
2022-10-03T07:16:26.512Z,100351.92
2022-10-03T07:22:12.752Z,100353.15
2022-10-03T07:27:53.083Z,100353.95
2022-10-03T07:33:54.240Z,100357.66
2022-10-03T07:39:40.995Z,100355.85
2022-10-03T07:45:22.577Z,100361.70
2022-10-03T07:50:53.575Z,100366.69
2022-10-03T07:56:20.886Z,100368.08
2022-10-03T08:01:48.642Z,100376.78
2022-10-03T08:07:11.038Z,100380.77
2022-10-03T08:12:32.802Z,100381.58
2022-10-03T08:17:56.472Z,100374.60
2022-10-03T08:23:29.560Z,100383.28
2022-10-03T08:28:45.453Z,100389.38
2022-10-03T08:34:43.116Z,100396.52
2022-10-03T08:40:14.466Z,100405.48
2022-10-03T08:45:51.150Z,100405.92
2022-10-03T08:51:17.559Z,100397.20
2022-10-03T08:56:55.970Z,100405.10
2022-10-03T09:02:21.513Z,100401.19
2022-10-03T09:07:55.320Z,100401.73
2022-10-03T09:13:20.520Z,100398.98
2022-10-03T09:18:59.845Z,100404.73
2022-10-03T09:24:45.453Z,100413.20
2022-10-03T09:30:21.656Z,100415.34
2022-10-03T09:35:51.561Z,100419.66
2022-10-03T09:41:24.380Z,100422.29
2022-10-03T09:47:10.673Z,100428.91
2022-10-03T09:52:23.887Z,100433.29
2022-10-03T09:58:19.370Z,100433.08
2022-10-03T10:03:45.149Z,100426.11
2022-10-03T10:09:08.856Z,100430.71
2022-10-03T10:14:37.026Z,100436.01
2022-10-03T10:20:05.279Z,100440.45
2022-10-03T10:25:26.280Z,100448.99
2022-10-03T10:30:57.739Z,100454.12
2022-10-03T10:36:29.498Z,100459.44
2022-10-03T10:42:14.519Z,100455.36
2022-10-03T10:47:39.101Z,100446.11
2022-10-03T10:53:01.043Z,100433.94
2022-10-03T10:58:10.252Z,100440.94
2022-10-03T11:03:41.497Z,100449.84
2022-10-03T11:09:14.589Z,100449.47
2022-10-03T11:14:36.282Z,100442.24
2022-10-03T11:20:17.341Z,100444.90
2022-10-03T11:26:02.682Z,100447.52
2022-10-03T11:31:25.922Z,100447.96
2022-10-03T11:37:08.344Z,100451.97
2022-10-03T11:42:45.868Z,100459.84
2022-10-03T11:48:14.650Z,100460.56
2022-10-03T11:53:29.234Z,100460.02
2022-10-03T11:58:54.986Z,100462.17
2022-10-03T12:04:05.483Z,100468.16
2022-10-03T12:09:32.428Z,100475.98
2022-10-03T12:14:57.817Z,100481.60
2022-10-03T12:20:31.160Z,100482.61
2022-10-03T12:25:41.290Z,100481.35
2022-10-03T12:30:47.963Z,100479.16
2022-10-03T12:36:15.600Z,100474.42
2022-10-03T12:41:43.177Z,100473.88
2022-10-03T12:47:55.342Z,100465.68
2022-10-03T12:53:24.136Z,100474.14
2022-10-03T12:58:49.945Z,100485.39
2022-10-03T13:04:09.025Z,100480.31
2022-10-03T13:09:16.961Z,100491.21
2022-10-03T13:14:40.428Z,100484.45
2022-10-03T13:20:03.740Z,100488.39
2022-10-03T13:26:11.894Z,100492.48
2022-10-03T13:31:24.706Z,100491.20
2022-10-03T13:36:40.718Z,100493.92
2022-10-03T13:42:19.777Z,100498.70
2022-10-03T13:47:56.135Z,100495.30
2022-10-03T13:53:10.231Z,100491.42
2022-10-03T13:58:23.717Z,100496.02
2022-10-03T14:03:52.053Z,100492.41
2022-10-03T14:09:07.301Z,100503.25
2022-10-03T14:14:50.749Z,100511.88
2022-10-03T14:20:34.760Z,100512.55
2022-10-03T14:25:43.340Z,100515.59
2022-10-03T14:31:08.269Z,100518.91
2022-10-03T14:36:37.701Z,100518.52
2022-10-03T14:41:56.302Z,100513.84
2022-10-03T14:47:03.259Z,100515.18
2022-10-03T14:52:28.729Z,100518.73
2022-10-03T14:57:53.173Z,100519.90
2022-10-03T15:03:33.843Z,100511.15
2022-10-03T15:08:57.291Z,100509.07
2022-10-03T15:14:09.600Z,100503.56
2022-10-03T15:19:23.280Z,100507.20
2022-10-03T15:24:31.722Z,100508.23
2022-10-03T15:29:39.442Z,100512.90
2022-10-03T15:34:48.952Z,100511.95
2022-10-03T15:40:04.294Z,100501.96
2022-10-03T15:45:08.134Z,100499.29
2022-10-03T15:50:41.125Z,100507.66
2022-10-03T15:55:54.259Z,100518.25
2022-10-03T16:01:17.062Z,100527.89
2022-10-03T16:06:26.799Z,100542.14
2022-10-03T16:11:45.770Z,100555.65
2022-10-03T16:17:00.885Z,100559.94
2022-10-03T16:22:27.060Z,100563.11
2022-10-03T16:27:32.980Z,100557.82
2022-10-03T16:32:54.072Z,100560.52
2022-10-03T16:38:01.139Z,100554.59
2022-10-03T16:43:12.795Z,100554.73
2022-10-03T16:48:46.921Z,100556.38
2022-10-03T16:53:53.990Z,100556.73
2022-10-03T16:59:02.259Z,100557.45
2022-10-03T17:04:23.236Z,100560.56
2022-10-03T17:09:51.796Z,100552.71
2022-10-03T17:15:23.846Z,100555.98
2022-10-03T17:20:56.375Z,100556.70
2022-10-03T17:26:22.376Z,100560.57
2022-10-03T17:31:44.748Z,100559.23
2022-10-03T17:37:48.223Z,100563.38
2022-10-03T17:43:26.634Z,100567.92
2022-10-03T17:49:07.763Z,100565.02
2022-10-03T17:54:26.308Z,100564.95
2022-10-03T17:59:46.450Z,100563.52
2022-10-03T18:04:56.413Z,100557.77
2022-10-03T18:10:03.110Z,100564.59
2022-10-03T18:15:11.082Z,100565.05
2022-10-03T18:20:37.071Z,100569.58
2022-10-03T18:26:20.898Z,100567.45
2022-10-03T18:31:26.597Z,100568.45
2022-10-03T18:36:39.612Z,100566.57
2022-10-03T18:41:52.974Z,100565.39
2022-10-03T18:47:30.566Z,100563.77
2022-10-03T18:53:06.715Z,100573.29
2022-10-03T18:58:26.171Z,100578.40
2022-10-03T19:04:00.223Z,100580.05
2022-10-03T19:09:28.656Z,100576.29
2022-10-03T19:14:47.397Z,100580.25
2022-10-03T19:19:59.364Z,100576.52
2022-10-03T19:25:07.267Z,100567.64
2022-10-03T19:30:12.393Z,100572.77
2022-10-03T19:35:20.669Z,100567.95
2022-10-03T19:40:43.306Z,100566.58
2022-10-03T19:45:54.502Z,100568.56
2022-10-03T19:51:13.360Z,100568.70
2022-10-03T19:56:27.998Z,100569.80
2022-10-03T20:01:45.053Z,100568.73
2022-10-03T20:06:50.028Z,100566.48
2022-10-03T20:12:09.818Z,100568.60
2022-10-03T20:17:17.918Z,100568.27
2022-10-03T20:22:26.962Z,100570.39
2022-10-03T20:27:45.346Z,100577.95
2022-10-03T20:32:49.690Z,100578.51
2022-10-03T20:38:38.272Z,100583.16
2022-10-03T20:43:54.154Z,100577.23
2022-10-03T20:49:35.551Z,100575.49
2022-10-03T20:55:09.519Z,100575.69
2022-10-03T21:00:15.979Z,100572.10
2022-10-03T21:05:34.674Z,100570.73
2022-10-03T21:10:41.176Z,100572.23
2022-10-03T21:15:52.167Z,100573.79
2022-10-03T21:21:11.728Z,100577.65
2022-10-03T21:26:22.505Z,100578.68
2022-10-03T21:31:39.520Z,100585.85
2022-10-03T21:36:48.963Z,100585.21
2022-10-03T21:42:04.033Z,100585.65
2022-10-03T21:47:31.946Z,100583.36
2022-10-03T21:52:51.880Z,100576.96
2022-10-03T21:58:02.879Z,100574.52
2022-10-03T22:03:25.669Z,100575.11
2022-10-03T22:08:36.930Z,100570.38
2022-10-03T22:13:45.348Z,100570.08
2022-10-03T22:19:14.938Z,100564.27
2022-10-03T22:25:00.691Z,100563.28
2022-10-03T22:30:07.973Z,100562.01
2022-10-03T22:35:14.064Z,100564.11
2022-10-03T22:40:17.807Z,100566.03
2022-10-03T22:45:24.680Z,100564.55
2022-10-03T22:50:32.745Z,100561.73
2022-10-03T22:55:38.446Z,100560.33
2022-10-03T23:00:46.877Z,100558.81
2022-10-03T23:06:35.930Z,100560.47
2022-10-03T23:11:42.785Z,100562.73
2022-10-03T23:17:15.716Z,100564.14
2022-10-03T23:22:23.682Z,100566.48
2022-10-03T23:27:47.024Z,100560.83
2022-10-03T23:32:50.474Z,100556.92
2022-10-03T23:37:55.643Z,100557.88
2022-10-03T23:43:26.870Z,100560.89
2022-10-03T23:48:33.188Z,100566.31
2022-10-03T23:53:47.296Z,100565.21
2022-10-03T23:59:17.261Z,100564.48
